createdAt,value
2019-06-07T00:02:50.129Z,20.40
2019-06-07T00:08:07.011Z,20.40
2019-06-07T00:13:01.498Z,20.30
2019-06-07T00:18:05.366Z,20.20
2019-06-07T00:23:11.380Z,20.20
2019-06-07T00:28:17.390Z,20.30
2019-06-07T00:33:23.993Z,20.20
2019-06-07T00:38:24.779Z,20.10
2019-06-07T00:43:28.710Z,20.00
2019-06-07T00:48:33.145Z,19.80
2019-06-07T00:53:36.796Z,19.80
2019-06-07T00:58:40.397Z,19.60
2019-06-07T01:03:44.526Z,19.70
2019-06-07T01:08:48.418Z,19.70
2019-06-07T01:13:51.742Z,19.70
2019-06-07T01:18:55.889Z,19.60
2019-06-07T01:24:11.991Z,19.40
2019-06-07T01:29:10.052Z,19.30
2019-06-07T01:34:13.344Z,19.30
2019-06-07T01:39:18.822Z,19.30
2019-06-07T01:44:26.028Z,19.20
2019-06-07T01:49:29.763Z,19.10
2019-06-07T01:54:57.386Z,19.00
2019-06-07T01:59:38.718Z,19.10
2019-06-07T02:04:42.009Z,18.90
2019-06-07T02:09:45.319Z,19.00
2019-06-07T02:14:48.637Z,19.00
2019-06-07T02:19:52.053Z,19.00
2019-06-07T02:25:34.411Z,18.90
2019-06-07T02:30:35.185Z,18.80
2019-06-07T02:35:08.926Z,18.80
2019-06-07T02:40:15.055Z,18.90
2019-06-07T02:45:18.449Z,18.90
2019-06-07T02:50:23.112Z,19.00
2019-06-07T02:55:29.566Z,19.20
2019-06-07T03:01:05.648Z,19.20
2019-06-07T03:05:49.390Z,19.40
2019-06-07T03:10:53.054Z,19.50
2019-06-07T03:15:58.273Z,19.50
2019-06-07T03:21:05.645Z,19.50
2019-06-07T03:26:09.830Z,19.60
2019-06-07T03:31:13.510Z,19.70
2019-06-07T03:36:23.961Z,19.90
2019-06-07T03:41:22.574Z,19.90
2019-06-07T03:46:27.326Z,20.10
2019-06-07T03:51:32.901Z,20.10
2019-06-07T03:56:38.618Z,20.30
2019-06-07T04:01:41.860Z,20.40
2019-06-07T04:06:45.198Z,20.50
2019-06-07T04:11:48.526Z,20.60
2019-06-07T04:16:52.549Z,20.70
2019-06-07T04:21:56.060Z,22.40
2019-06-07T04:26:59.429Z,20.80
2019-06-07T04:32:04.432Z,20.90
2019-06-07T04:37:10.119Z,21.00
2019-06-07T04:42:17.637Z,21.00
2019-06-07T04:47:24.854Z,21.30
2019-06-07T04:52:29.955Z,21.40
2019-06-07T04:57:35.434Z,21.60
2019-06-07T05:02:40.882Z,21.70
2019-06-07T05:07:46.205Z,21.80
2019-06-07T05:12:50.807Z,22.00
2019-06-07T05:17:54.337Z,22.10
2019-06-07T05:22:57.770Z,22.30
2019-06-07T05:28:01.247Z,22.50
2019-06-07T05:33:06.316Z,22.70
2019-06-07T05:38:09.759Z,22.90
2019-06-07T05:43:28.729Z,22.90
2019-06-07T05:48:32.170Z,23.00
2019-06-07T05:53:38.499Z,23.10
2019-06-07T05:58:43.020Z,23.20
2019-06-07T06:03:48.278Z,23.40
2019-06-07T06:08:51.164Z,23.70
2019-06-07T06:14:06.567Z,24.30
2019-06-07T06:18:59.710Z,25.20
2019-06-07T06:24:03.017Z,25.30
2019-06-07T06:29:06.314Z,25.70
2019-06-07T06:34:09.639Z,25.30
2019-06-07T06:39:13.387Z,24.90
2019-06-07T06:44:17.881Z,24.60
2019-06-07T06:49:21.439Z,24.50
2019-06-07T06:54:40.079Z,23.70
2019-06-07T06:59:39.053Z,23.70
2019-06-07T07:04:37.819Z,23.80
2019-06-07T07:09:43.838Z,24.30
2019-06-07T07:14:49.486Z,24.20
2019-06-07T07:19:55.397Z,24.10
2019-06-07T07:24:57.790Z,24.60
2019-06-07T07:30:34.641Z,25.30
2019-06-07T07:35:07.789Z,25.40
2019-06-07T07:40:55.753Z,25.90
2019-06-07T07:45:19.537Z,25.90
2019-06-07T07:50:22.980Z,26.00
2019-06-07T07:55:27.966Z,27.90
2019-06-07T08:00:52.368Z,26.70
2019-06-07T08:05:42.888Z,26.60
2019-06-07T08:10:48.034Z,26.00
2019-06-07T08:15:54.432Z,26.90
2019-06-07T08:21:17.235Z,27.00
2019-06-07T08:26:01.448Z,26.80
2019-06-07T08:31:07.382Z,26.10
2019-06-07T08:36:20.011Z,25.70
2019-06-07T08:41:15.103Z,25.50
2019-06-07T08:46:18.857Z,25.30
2019-06-07T08:51:23.522Z,26.30
2019-06-07T08:56:28.127Z,26.70
2019-06-07T09:01:31.717Z,25.80
2019-06-07T09:11:40.333Z,25.90
2019-06-07T09:16:43.790Z,25.90
2019-06-07T09:21:47.571Z,26.10
2019-06-07T09:26:50.888Z,26.50
2019-06-07T09:31:55.932Z,26.00
2019-06-07T09:37:04.291Z,26.20
2019-06-07T09:42:09.962Z,26.40
2019-06-07T09:47:30.691Z,26.50
2019-06-07T09:52:17.608Z,26.30
2019-06-07T09:57:21.299Z,26.00
2019-06-07T10:02:25.809Z,26.50
2019-06-07T10:07:32.007Z,27.20
2019-06-07T10:12:34.663Z,27.80
2019-06-07T10:17:37.981Z,28.40
2019-06-07T10:22:41.690Z,28.80
2019-06-07T10:27:45.107Z,29.00
2019-06-07T10:32:52.131Z,28.40
2019-06-07T10:37:58.142Z,28.50
2019-06-07T10:43:01.293Z,28.10
2019-06-07T10:48:05.677Z,27.70
2019-06-07T10:53:10.740Z,27.30
2019-06-07T10:58:14.325Z,26.70
2019-06-07T11:03:18.370Z,26.30
2019-06-07T11:08:21.869Z,26.40
2019-06-07T11:13:25.601Z,26.50
2019-06-07T11:18:31.103Z,26.70
2019-06-07T11:23:34.733Z,26.60
2019-06-07T11:28:38.389Z,26.80
2019-06-07T11:33:41.688Z,26.80
2019-06-07T11:38:45.000Z,26.70
2019-06-07T11:43:48.319Z,27.00
2019-06-07T11:48:51.595Z,27.20
2019-06-07T11:53:55.581Z,27.60
2019-06-07T11:58:58.878Z,27.70
2019-06-07T12:04:02.793Z,28.60
2019-06-07T12:09:08.422Z,29.10
2019-06-07T12:14:12.888Z,29.40
2019-06-07T12:19:19.809Z,29.70
2019-06-07T12:24:23.618Z,29.70
2019-06-07T12:29:29.485Z,29.20
2019-06-07T12:34:36.011Z,28.70
2019-06-07T12:39:39.332Z,29.10
2019-06-07T12:44:42.656Z,29.20
2019-06-07T12:49:46.151Z,29.20
2019-06-07T12:54:50.713Z,28.70
2019-06-07T12:59:53.640Z,29.00
2019-06-07T13:04:57.341Z,29.30
2019-06-07T13:10:01.545Z,29.40
2019-06-07T13:15:06.226Z,29.20
2019-06-07T13:20:11.850Z,28.50
2019-06-07T13:25:16.263Z,28.20
2019-06-07T13:30:21.039Z,29.50
2019-06-07T13:35:25.483Z,30.20
2019-06-07T13:40:28.890Z,30.00
2019-06-07T13:45:32.206Z,29.50
2019-06-07T13:50:35.515Z,29.50
2019-06-07T13:55:39.601Z,30.00
2019-06-07T14:00:43.800Z,30.00
2019-06-07T14:05:48.164Z,29.60
2019-06-07T14:10:51.863Z,29.50
2019-06-07T14:15:55.945Z,31.80
2019-06-07T14:20:59.731Z,34.70
2019-06-07T14:26:03.614Z,37.80
2019-06-07T14:31:07.246Z,38.80
2019-06-07T14:36:10.629Z,42.50
2019-06-07T14:41:14.771Z,43.10
2019-06-07T14:46:18.047Z,45.30
2019-06-07T14:51:22.007Z,46.70
2019-06-07T14:56:27.032Z,47.50
2019-06-07T15:01:30.787Z,44.70
2019-06-07T15:06:34.964Z,46.20
2019-06-07T15:11:39.231Z,45.00
2019-06-07T15:16:43.709Z,41.50
2019-06-07T15:21:48.441Z,46.20
2019-06-07T15:26:51.842Z,49.30
2019-06-07T15:31:55.893Z,51.50
2019-06-07T15:36:59.830Z,50.20
2019-06-07T15:42:03.489Z,47.00
2019-06-07T15:47:07.462Z,46.10
2019-06-07T15:52:10.814Z,48.40
2019-06-07T15:57:14.101Z,45.40
2019-06-07T16:02:17.857Z,48.20
2019-06-07T16:07:21.535Z,49.90
2019-06-07T16:12:25.516Z,50.30
2019-06-07T16:17:29.661Z,49.40
2019-06-07T16:22:33.648Z,49.10
2019-06-07T16:27:38.375Z,48.10
2019-06-07T16:32:43.927Z,46.90
2019-06-07T16:37:51.608Z,46.60
2019-06-07T16:42:53.284Z,47.70
2019-06-07T16:47:56.800Z,46.60
2019-06-07T16:53:00.561Z,46.00
2019-06-07T16:58:04.823Z,46.80
2019-06-07T17:03:08.156Z,48.30
2019-06-07T17:13:34.115Z,48.40
2019-06-07T17:18:38.892Z,47.50
2019-06-07T17:23:43.786Z,46.60
2019-06-07T17:28:47.783Z,44.80
2019-06-07T17:33:52.397Z,42.40
2019-06-07T17:38:56.079Z,41.60
2019-06-07T17:44:00.491Z,40.80
2019-06-07T17:49:04.461Z,40.50
2019-06-07T17:59:11.653Z,32.80
2019-06-07T18:04:15.188Z,30.90
2019-06-07T18:09:19.054Z,29.80
2019-06-07T18:14:22.838Z,28.70
2019-06-07T18:19:26.143Z,27.90
2019-06-07T18:24:30.232Z,27.20
2019-06-07T18:29:33.598Z,26.60
2019-06-07T18:34:37.495Z,26.10
2019-06-07T18:39:41.462Z,25.70
2019-06-07T18:49:49.557Z,24.80
2019-06-07T18:54:55.038Z,24.40
2019-06-07T18:59:59.498Z,24.10
2019-06-07T19:05:03.033Z,24.60
2019-06-07T19:15:12.166Z,23.40
2019-06-07T19:20:16.869Z,23.20
2019-06-07T19:25:20.823Z,23.20
2019-06-07T19:30:24.135Z,23.10
2019-06-07T19:35:27.740Z,22.80
2019-06-07T19:40:31.133Z,22.50
2019-06-07T19:45:34.891Z,22.40
2019-06-07T19:50:38.452Z,22.20
2019-06-07T19:55:41.936Z,22.10
2019-06-07T20:00:45.788Z,21.90
2019-06-07T20:05:50.353Z,21.70
2019-06-07T20:10:54.465Z,21.60
2019-06-07T20:16:00.819Z,21.20
2019-06-07T20:21:04.968Z,21.20
2019-06-07T20:26:08.895Z,21.20
2019-06-07T20:31:13.268Z,21.10
2019-06-07T20:36:16.707Z,21.10
2019-06-07T20:41:19.997Z,20.80
2019-06-07T20:46:23.671Z,20.90
2019-06-07T20:51:27.418Z,20.60
2019-06-07T20:56:30.882Z,20.70
2019-06-07T21:01:34.925Z,22.10
2019-06-07T21:06:38.281Z,20.60
2019-06-07T21:11:41.636Z,20.50
2019-06-07T21:16:44.970Z,20.60
2019-06-07T21:21:48.329Z,20.60
2019-06-07T21:26:53.544Z,20.40
2019-06-07T21:31:57.129Z,20.30
2019-06-07T21:37:01.711Z,20.20
2019-06-07T21:42:06.058Z,20.10
2019-06-07T21:47:10.595Z,20.00
2019-06-07T21:52:15.457Z,19.90
2019-06-07T21:57:18.892Z,19.80
2019-06-07T22:02:22.321Z,19.80
2019-06-07T22:07:25.678Z,19.70
2019-06-07T22:22:36.165Z,19.70
2019-06-07T22:27:39.455Z,19.60
2019-06-07T22:32:42.781Z,19.50
2019-06-07T22:42:49.812Z,19.40
2019-06-07T22:47:53.358Z,19.30
2019-06-07T22:52:56.663Z,19.30
2019-06-07T23:03:04.630Z,19.20
2019-06-07T23:08:08.981Z,19.20
2019-06-07T23:23:21.984Z,18.90
2019-06-07T23:33:29.540Z,18.80
2019-06-07T23:38:33.226Z,18.80
2019-06-07T23:48:40.474Z,18.80
2019-06-07T23:53:45.642Z,18.80
2019-06-07T23:58:49.006Z,18.80
